Terminal Aerodrome Forecast
Issued by NWS North Platte, NE

Home | Current Version | Previous Version | Graphics & Text | Print | Product List | Glossary On
Versions: 1 2 3 4 5 6 7 8 9 10 11 12 13 14 15 16 17 18 19 20
000
FTUS43 KLBF 261100
TAFVTN
TAF
KVTN 261120Z 2612/2712 14011KT P6SM SCT015 BKN029
      TEMPO 2613/2615 BKN015
     FM261500 14014KT P6SM OVC015
      TEMPO 2617/2619 SCT015 OVC050
     FM261900 13011KT P6SM OVC050
     FM270200 09008KT P6SM SCT050=

USA.gov is the U.S. government's official web portal to all federal, state and local government web resources and services.